Airfield :
LOGIN :

Register | Disclaimer

   EN    FR    IT 

 










Legend :    VFR   Marginal VFR   IFR   Intensive IFR   Very Intensive IFR
Visi :
Ceiling :
>= 8 km
>= 3000ft
5 to 8 km
1000 to 3000 ft
1500m to 5 km
500 to 1000 ft
800 to 1500m
200 to 500 ft
< 800m
< 200 ft
Symbols :   Thunderstorms  Fog  Heavy snow  Heavy precipitations  Wind > 20 kt
SIGMETs :     Misc.  Thunderstorms  Icing  Turbulence  Mountain Waves  Volcanic Ashes







- Airport Elevation : 12 ft
- IATA code : NCE
- Download approach charts


LFMN - Nice

CURRENT METAR :
  • 241200Z 13004KT 090V150 CAVOK 26/20 Q1018 NOSIG

EXPIRED METARs :
  • 241130Z 13004KT CAVOK 26/19 Q1018 NOSIG
  • 241100Z 14004KT CAVOK 26/19 Q1018 NOSIG
  • 241030Z 13005KT CAVOK 26/19 Q1018 NOSIG
  • 241000Z 11003KT 070V150 CAVOK 26/20 Q1018 NOSIG
  • 240930Z 12003KT CAVOK 26/19 Q1018 NOSIG

TAF TAF LFMN
Valid from the 24 at 09:00 until the 25 at 15:00 UTC


240800Z 2409/2515 14006KT CAVOK
BECMG 2418/2420 VRB03KT
BECMG 2507/2509 10010KT
ATIS : +33 4 93 17 21 16
No reported NOTAMs for that airfield.
1 SIGMET reported for the Marseille FIR (LFMM) :
 
Severe turbulence
LFMM SIGMET 1 VALID 241000/241400 LFPW
LFMM MARSEILLE FIR/UIR SEV TURB FCST WI N4330 E00245 - N4400 E00245 - N4400 E00300 - N4330 E00245 SFC/FL060 STNR INTSF=



MET'MAP, your aeronautical weather chart ! - Copyright ORBIFLY December 2007 - Disclaimer

ORBIFLY MET'MAP TEAM :

Programming & Development : Alexandra Zaïnal
Concept & Development : Baudouin d'Aumeries
Co-Development & Prog : Marc-Olivier Méhu
Technical & hardware support : Manuel Goepfert

Contact : metmap@orbifly.com




SOURCES & CREDITS :

   NOAA